createdAt,value
2024-01-16T00:00:58.450Z,1010.00
2024-01-16T00:01:58.410Z,1010.00
2024-01-16T00:02:58.342Z,1010.00
2024-01-16T00:03:58.360Z,1010.00
2024-01-16T00:04:58.331Z,1010.00
2024-01-16T00:05:58.445Z,1010.00
2024-01-16T00:06:58.376Z,1010.00
2024-01-16T00:07:58.292Z,1010.00
2024-01-16T00:08:58.293Z,1010.00
2024-01-16T00:09:58.288Z,1010.00
2024-01-16T00:10:58.260Z,1010.00
2024-01-16T00:11:58.237Z,1010.00
2024-01-16T00:12:58.232Z,1010.00
2024-01-16T00:13:58.213Z,1010.00
2024-01-16T00:14:58.222Z,1010.00
2024-01-16T00:15:58.207Z,1010.00
2024-01-16T00:16:58.183Z,1010.00
2024-01-16T00:17:58.257Z,1010.00
2024-01-16T00:18:58.197Z,1010.00
2024-01-16T00:19:58.160Z,1010.00
2024-01-16T00:20:58.149Z,1010.00
2024-01-16T00:21:58.145Z,1010.00
2024-01-16T00:22:58.122Z,1010.00
2024-01-16T00:23:58.118Z,1010.00
2024-01-16T00:24:58.115Z,1010.00
2024-01-16T00:25:58.132Z,1010.00
2024-01-16T00:26:58.068Z,1010.00
2024-01-16T00:27:58.080Z,1010.00
2024-01-16T00:28:58.067Z,1010.00
2024-01-16T00:29:58.034Z,1010.00
2024-01-16T00:30:58.037Z,1010.00
2024-01-16T00:31:58.016Z,1010.00
2024-01-16T00:32:58.105Z,1010.00
2024-01-16T00:33:58.126Z,1010.00
2024-01-16T00:34:57.996Z,1010.00
2024-01-16T00:35:58.019Z,1010.00
2024-01-16T00:36:57.983Z,1010.00
2024-01-16T00:37:57.975Z,1010.00
2024-01-16T00:38:57.964Z,1010.00
2024-01-16T00:39:57.950Z,1010.00
2024-01-16T00:40:57.941Z,1010.00
2024-01-16T00:41:57.942Z,1010.00
2024-01-16T00:42:57.918Z,1010.00
2024-01-16T00:43:57.914Z,1010.00
2024-01-16T00:44:57.903Z,1010.00
2024-01-16T00:45:57.955Z,1010.00
2024-01-16T00:46:57.881Z,1010.00
2024-01-16T00:47:58.088Z,1010.00
2024-01-16T00:48:57.925Z,1010.00
2024-01-16T00:49:57.867Z,1010.00
2024-01-16T00:50:57.848Z,1010.00
2024-01-16T00:51:57.830Z,1010.00
2024-01-16T00:52:57.817Z,1010.00
2024-01-16T00:53:57.821Z,1010.00
2024-01-16T00:54:57.809Z,1010.00
2024-01-16T00:55:57.949Z,1010.00
2024-01-16T00:56:57.821Z,1010.00
2024-01-16T00:57:57.808Z,1010.00
2024-01-16T00:58:57.815Z,1010.00
2024-01-16T00:59:57.795Z,1010.00
2024-01-16T01:00:57.805Z,1010.00
2024-01-16T01:01:57.787Z,1010.00
2024-01-16T01:02:57.781Z,1010.00
2024-01-16T01:03:57.961Z,1010.00
2024-01-16T01:04:57.769Z,1010.00
2024-01-16T01:05:57.838Z,1010.00
2024-01-16T01:06:57.723Z,1010.00
2024-01-16T01:07:57.716Z,1010.00
2024-01-16T01:08:57.697Z,1010.00
2024-01-16T01:09:57.674Z,1010.00
2024-01-16T01:10:57.701Z,1010.00
2024-01-16T01:11:57.664Z,1010.00
2024-01-16T01:12:57.655Z,1010.00
2024-01-16T01:13:57.664Z,1010.00
2024-01-16T01:14:57.721Z,1010.00
2024-01-16T01:15:57.647Z,1010.00
2024-01-16T01:16:57.618Z,1010.00
2024-01-16T01:17:57.734Z,1010.00
2024-01-16T01:18:57.665Z,1010.00
2024-01-16T01:19:57.597Z,1010.00
2024-01-16T01:20:57.632Z,1010.00
2024-01-16T01:21:57.591Z,1010.00
2024-01-16T01:22:57.556Z,1010.00
2024-01-16T01:23:57.605Z,1010.00
2024-01-16T01:24:57.534Z,1010.00
2024-01-16T01:25:57.538Z,1010.00
2024-01-16T01:26:57.508Z,1010.00
2024-01-16T01:27:57.487Z,1010.00
2024-01-16T01:28:57.473Z,1010.00
2024-01-16T01:29:57.469Z,1010.00
2024-01-16T01:30:57.500Z,1010.00
2024-01-16T01:31:57.471Z,1010.00
2024-01-16T01:32:57.518Z,1010.00
2024-01-16T01:33:57.500Z,1010.00
2024-01-16T01:34:57.401Z,1010.00
2024-01-16T01:35:57.403Z,1010.00
2024-01-16T01:36:57.373Z,1010.00
2024-01-16T01:37:57.369Z,1010.00
2024-01-16T01:38:57.343Z,1010.00
2024-01-16T01:39:57.342Z,1010.00
2024-01-16T01:40:57.317Z,1010.00
2024-01-16T01:41:57.365Z,1010.00
2024-01-16T01:42:57.292Z,1010.00
2024-01-16T01:43:57.283Z,1010.00
2024-01-16T01:44:57.314Z,1010.00
2024-01-16T01:45:57.271Z,1010.00
2024-01-16T01:46:57.253Z,1010.00
2024-01-16T01:47:57.292Z,1010.00
2024-01-16T01:48:57.286Z,1010.00
2024-01-16T01:49:57.197Z,1010.00
2024-01-16T01:50:57.180Z,1010.00
2024-01-16T01:51:57.173Z,1010.00
2024-01-16T01:52:57.162Z,1010.00
2024-01-16T01:53:57.144Z,1010.00
2024-01-16T01:54:57.135Z,1010.00
2024-01-16T01:55:57.151Z,1010.00
2024-01-16T01:56:57.117Z,1010.00
2024-01-16T01:57:57.106Z,1010.00
2024-01-16T01:58:57.086Z,1010.00
2024-01-16T01:59:57.081Z,1010.00
2024-01-16T02:00:57.090Z,1010.00
2024-01-16T02:01:57.053Z,1010.00
2024-01-16T02:02:57.115Z,1010.00
2024-01-16T02:03:57.031Z,1010.00
2024-01-16T02:04:57.052Z,1010.00
2024-01-16T02:05:57.103Z,1010.00
2024-01-16T02:06:56.993Z,1010.00
2024-01-16T02:07:56.992Z,1010.00
2024-01-16T02:08:56.972Z,1010.00
2024-01-16T02:09:56.960Z,1010.00
2024-01-16T02:10:56.958Z,1010.00
2024-01-16T02:11:56.965Z,1010.00
2024-01-16T02:12:56.930Z,1010.00
2024-01-16T02:13:56.928Z,1010.00
2024-01-16T02:14:56.921Z,1010.00
2024-01-16T02:15:56.899Z,1010.00
2024-01-16T02:16:56.890Z,1010.00
2024-01-16T02:17:56.974Z,1010.00
2024-01-16T02:18:56.895Z,1010.00
2024-01-16T02:19:56.888Z,1010.00
2024-01-16T02:20:56.837Z,1010.00
2024-01-16T02:21:56.833Z,1010.00
2024-01-16T02:22:56.820Z,1010.00
2024-01-16T02:23:56.813Z,1010.00
2024-01-16T02:24:56.797Z,1010.00
2024-01-16T02:25:56.769Z,1010.00
2024-01-16T02:26:56.798Z,1010.00
2024-01-16T02:27:56.756Z,1010.00
2024-01-16T02:28:56.735Z,1010.00
2024-01-16T02:29:56.731Z,1010.00
2024-01-16T02:30:56.780Z,1010.00
2024-01-16T02:31:56.696Z,1010.00
2024-01-16T02:32:56.753Z,1010.00
2024-01-16T02:33:56.703Z,1010.00
2024-01-16T02:34:56.657Z,1010.00
2024-01-16T02:35:56.656Z,1010.00
2024-01-16T02:36:56.661Z,1010.00
2024-01-16T02:37:56.630Z,1010.00
2024-01-16T02:38:56.668Z,1010.00
2024-01-16T02:39:56.612Z,1010.00
2024-01-16T02:40:56.611Z,1010.00
2024-01-16T02:41:56.593Z,1010.00
2024-01-16T02:42:56.578Z,1010.00
2024-01-16T02:43:56.566Z,1010.00
2024-01-16T02:44:56.605Z,1010.00
2024-01-16T02:45:56.533Z,1010.00
2024-01-16T02:46:56.535Z,1010.00
2024-01-16T02:47:56.639Z,1010.00
2024-01-16T02:48:56.555Z,1010.00
2024-01-16T02:49:56.487Z,1010.00
2024-01-16T02:50:56.535Z,1010.00
2024-01-16T02:51:56.473Z,1010.00
2024-01-16T02:52:56.451Z,1010.00
2024-01-16T02:53:56.446Z,1010.00
2024-01-16T02:54:56.435Z,1010.00
2024-01-16T02:55:56.419Z,1010.00
2024-01-16T02:56:56.451Z,1010.00
2024-01-16T02:57:56.411Z,1010.00
2024-01-16T02:58:56.396Z,1010.00
2024-01-16T02:59:56.378Z,1010.00
2024-01-16T03:00:56.420Z,1010.00
2024-01-16T03:01:56.598Z,1010.00
2024-01-16T03:02:56.415Z,1010.00
2024-01-16T03:03:56.336Z,1010.00
2024-01-16T03:04:56.324Z,1010.00
2024-01-16T03:05:56.376Z,1010.00
2024-01-16T03:06:56.416Z,1010.00
2024-01-16T03:07:56.289Z,1010.00
2024-01-16T03:08:56.320Z,1010.00
2024-01-16T03:09:56.258Z,1010.00
2024-01-16T03:10:56.243Z,1010.00
2024-01-16T03:11:56.286Z,1010.00
2024-01-16T03:12:56.224Z,1010.00
2024-01-16T03:13:56.227Z,1010.00
2024-01-16T03:14:56.217Z,1010.00
2024-01-16T03:15:56.220Z,1010.00
2024-01-16T03:16:56.186Z,1010.00
2024-01-16T03:17:56.294Z,1010.00
2024-01-16T03:18:56.304Z,1010.00
2024-01-16T03:19:56.182Z,1010.00
2024-01-16T03:20:56.253Z,1010.00
2024-01-16T03:21:56.174Z,1010.00
2024-01-16T03:22:56.153Z,1010.00
2024-01-16T03:23:56.244Z,1010.00
2024-01-16T03:24:56.147Z,1010.00
2024-01-16T03:25:56.139Z,1010.00
2024-01-16T03:26:56.178Z,1010.00
2024-01-16T03:27:56.118Z,1010.00
2024-01-16T03:28:56.106Z,1010.00
2024-01-16T03:29:56.129Z,1010.00
2024-01-16T03:30:56.416Z,1010.00
2024-01-16T03:31:56.098Z,1010.00
2024-01-16T03:32:56.117Z,1010.00
2024-01-16T03:33:56.088Z,1010.00
2024-01-16T03:34:56.034Z,1010.00
2024-01-16T03:35:56.073Z,1010.00
2024-01-16T03:36:56.005Z,1010.00
2024-01-16T03:37:55.989Z,1010.00
2024-01-16T03:38:56.034Z,1010.00
2024-01-16T03:39:56.004Z,1010.00
2024-01-16T03:40:55.965Z,1010.00
2024-01-16T03:41:56.036Z,1010.00
2024-01-16T03:42:55.972Z,1010.00
2024-01-16T03:43:55.977Z,1010.00
2024-01-16T03:44:55.972Z,1010.00
2024-01-16T03:45:55.934Z,1010.00
2024-01-16T03:46:55.932Z,1010.00
2024-01-16T03:47:56.175Z,1010.00
2024-01-16T03:48:56.032Z,1010.00
2024-01-16T03:49:55.904Z,1010.00
2024-01-16T03:50:55.925Z,1010.00
2024-01-16T03:51:55.827Z,1010.00
2024-01-16T03:52:55.902Z,1010.00
2024-01-16T03:53:55.834Z,1010.00
2024-01-16T03:54:55.811Z,1010.00
2024-01-16T03:55:55.786Z,1010.00
2024-01-16T03:56:55.854Z,1010.00
2024-01-16T03:57:55.774Z,1010.00
2024-01-16T03:58:55.765Z,1010.00
2024-01-16T03:59:55.771Z,1010.00
2024-01-16T04:00:55.770Z,1010.00
2024-01-16T04:01:55.721Z,1010.00
2024-01-16T04:02:55.776Z,1010.00
2024-01-16T04:03:55.824Z,1010.00
2024-01-16T04:04:55.722Z,1010.00
2024-01-16T04:05:55.764Z,1010.00
2024-01-16T04:06:55.683Z,1010.00
2024-01-16T04:07:55.672Z,1010.00
2024-01-16T04:08:55.695Z,1010.00
2024-01-16T04:09:55.645Z,1010.00
2024-01-16T04:10:55.639Z,1010.00
2024-01-16T04:11:55.646Z,1010.00
2024-01-16T04:12:55.633Z,1010.00
2024-01-16T04:13:55.606Z,1010.00
2024-01-16T04:14:55.602Z,1010.00
2024-01-16T04:15:55.598Z,1010.00
2024-01-16T04:16:55.586Z,1010.00
2024-01-16T04:17:55.585Z,1010.00
2024-01-16T04:18:55.683Z,1010.00
2024-01-16T04:19:55.570Z,1010.00
2024-01-16T04:20:55.611Z,1010.00
2024-01-16T04:21:55.566Z,1010.00
2024-01-16T04:22:55.536Z,1010.00
2024-01-16T04:23:55.587Z,1010.00
2024-01-16T04:24:55.521Z,1010.00
2024-01-16T04:25:55.531Z,1010.00
2024-01-16T04:27:02.792Z,600.00
2024-01-16T04:28:03.507Z,600.00
2024-01-16T04:29:02.784Z,600.00
2024-01-16T04:30:02.788Z,600.00
2024-01-16T04:31:09.992Z,600.00
2024-01-16T04:32:10.099Z,600.00
2024-01-16T04:33:10.102Z,600.00
2024-01-16T04:34:10.090Z,600.00
2024-01-16T04:35:10.133Z,600.00
2024-01-16T04:36:10.038Z,623.00
2024-01-16T04:37:10.039Z,651.00
2024-01-16T04:38:10.091Z,687.00
2024-01-16T04:39:10.073Z,729.00
2024-01-16T04:40:10.102Z,771.00
2024-01-16T04:41:10.081Z,813.00
2024-01-16T04:42:10.079Z,844.00
2024-01-16T04:43:10.087Z,881.00
2024-01-16T04:44:10.132Z,907.00
2024-01-16T04:45:10.105Z,929.00
2024-01-16T04:46:10.114Z,943.00
2024-01-16T04:47:10.175Z,969.00
2024-01-16T04:48:10.301Z,982.00
2024-01-16T04:49:10.193Z,1009.00
2024-01-16T04:50:10.204Z,1023.00
2024-01-16T04:51:10.173Z,1028.00
2024-01-16T04:52:10.196Z,1036.00
2024-01-16T04:53:10.205Z,1046.00
2024-01-16T04:54:10.208Z,1057.00
2024-01-16T04:55:10.228Z,1067.00
2024-01-16T04:56:10.293Z,1072.00
2024-01-16T04:57:10.263Z,1071.00
2024-01-16T04:58:10.252Z,1087.00
2024-01-16T04:59:10.321Z,1091.00
2024-01-16T05:00:10.296Z,1094.00
2024-01-16T05:01:10.357Z,1106.00
2024-01-16T05:02:10.388Z,1099.00
2024-01-16T05:03:10.333Z,1102.00
2024-01-16T05:04:10.458Z,1099.00
2024-01-16T05:05:10.461Z,1107.00
2024-01-16T05:06:10.442Z,1105.00
2024-01-16T05:07:10.378Z,1100.00
2024-01-16T05:08:10.517Z,1105.00
2024-01-16T05:09:10.385Z,1099.00
2024-01-16T05:10:10.401Z,1097.00
2024-01-16T05:11:10.414Z,1103.00
2024-01-16T05:12:10.409Z,1098.00
2024-01-16T05:13:10.406Z,1096.00
2024-01-16T05:14:10.436Z,1086.00
2024-01-16T05:15:10.432Z,1087.00
2024-01-16T05:16:10.439Z,1081.00
2024-01-16T05:17:10.471Z,1082.00
2024-01-16T05:18:10.652Z,1084.00
2024-01-16T05:19:10.541Z,1076.00
2024-01-16T05:20:10.521Z,1073.00
2024-01-16T05:21:10.570Z,1072.00
2024-01-16T05:22:10.511Z,1069.00
2024-01-16T05:23:10.574Z,1072.00
2024-01-16T05:24:10.570Z,1068.00
2024-01-16T05:25:10.592Z,1056.00
2024-01-16T05:26:10.629Z,1057.00
2024-01-16T05:27:10.661Z,1051.00
2024-01-16T05:28:10.685Z,1049.00
2024-01-16T05:29:10.755Z,1035.00
2024-01-16T05:30:10.798Z,1039.00
2024-01-16T05:31:10.889Z,1033.00
2024-01-16T05:32:10.842Z,1036.00
2024-01-16T05:33:10.971Z,1031.00
2024-01-16T05:34:11.038Z,1023.00
2024-01-16T05:35:11.040Z,1015.00
2024-01-16T05:36:10.892Z,1021.00
2024-01-16T05:37:10.907Z,1009.00
2024-01-16T05:38:10.959Z,1009.00
2024-01-16T05:39:10.963Z,1002.00
2024-01-16T05:40:10.980Z,1002.00
2024-01-16T05:41:11.024Z,992.00
2024-01-16T05:42:11.024Z,982.00
2024-01-16T05:43:11.077Z,986.00
2024-01-16T05:44:11.113Z,987.00
2024-01-16T05:45:11.131Z,984.00
2024-01-16T05:46:11.146Z,982.00
2024-01-16T05:47:11.229Z,980.00
2024-01-16T05:48:11.300Z,979.00
2024-01-16T05:49:11.327Z,972.00
2024-01-16T05:50:11.363Z,970.00
2024-01-16T05:51:11.346Z,968.00
2024-01-16T05:52:11.309Z,958.00
2024-01-16T05:53:11.390Z,957.00
2024-01-16T05:54:11.385Z,955.00
2024-01-16T05:55:11.408Z,956.00
2024-01-16T05:56:11.451Z,957.00
2024-01-16T05:57:11.469Z,954.00
2024-01-16T05:58:14.962Z,945.00
2024-01-16T05:59:11.539Z,958.00
2024-01-16T06:00:11.519Z,945.00
2024-01-16T06:01:11.542Z,938.00
2024-01-16T06:02:11.547Z,930.00
2024-01-16T06:03:11.576Z,917.00
2024-01-16T06:04:14.417Z,910.00
2024-01-16T06:05:11.654Z,911.00
2024-01-16T06:06:11.710Z,911.00
2024-01-16T06:07:11.584Z,911.00
2024-01-16T06:08:11.663Z,903.00
2024-01-16T06:09:11.605Z,897.00
2024-01-16T06:10:11.623Z,895.00
2024-01-16T06:11:14.383Z,890.00
2024-01-16T06:12:11.648Z,890.00
2024-01-16T06:13:11.663Z,892.00
2024-01-16T06:14:11.707Z,886.00
2024-01-16T06:15:11.690Z,877.00
2024-01-16T06:16:11.714Z,863.00
2024-01-16T06:17:11.738Z,865.00
2024-01-16T06:18:11.907Z,862.00
2024-01-16T06:19:11.815Z,863.00
2024-01-16T06:20:11.805Z,853.00
2024-01-16T06:21:11.768Z,849.00
2024-01-16T06:22:11.789Z,851.00
2024-01-16T06:23:11.836Z,842.00
2024-01-16T06:24:11.831Z,841.00
2024-01-16T06:25:11.839Z,843.00
2024-01-16T06:26:11.869Z,830.00
2024-01-16T06:27:11.865Z,835.00
2024-01-16T06:28:11.868Z,832.00
2024-01-16T06:29:21.418Z,844.00
2024-01-16T06:30:13.038Z,845.00
2024-01-16T06:31:11.943Z,850.00
2024-01-16T06:32:11.944Z,860.00
2024-01-16T06:33:11.986Z,875.00
2024-01-16T06:34:12.048Z,892.00
2024-01-16T06:35:11.977Z,905.00
2024-01-16T06:36:11.974Z,903.00
2024-01-16T06:37:11.990Z,899.00
2024-01-16T06:38:12.054Z,901.00
2024-01-16T06:39:12.019Z,895.00
2024-01-16T06:40:12.032Z,892.00
2024-01-16T06:41:12.069Z,889.00
2024-01-16T06:42:12.074Z,895.00
2024-01-16T06:43:12.084Z,894.00
2024-01-16T06:44:12.112Z,891.00
2024-01-16T06:45:12.110Z,892.00
2024-01-16T06:46:12.113Z,883.00
2024-01-16T06:47:12.156Z,886.00
2024-01-16T06:48:12.389Z,893.00
2024-01-16T06:49:12.258Z,877.00
2024-01-16T06:50:12.218Z,877.00
2024-01-16T06:51:12.188Z,882.00
2024-01-16T06:52:12.204Z,870.00
2024-01-16T06:53:13.740Z,874.00
2024-01-16T06:54:12.335Z,871.00
2024-01-16T06:55:12.361Z,870.00
2024-01-16T06:56:12.411Z,857.00
2024-01-16T06:57:12.421Z,871.00
2024-01-16T06:58:12.437Z,856.00
2024-01-16T06:59:12.552Z,849.00
2024-01-16T07:00:12.497Z,853.00
2024-01-16T07:01:12.633Z,846.00
2024-01-16T07:02:12.577Z,851.00
2024-01-16T07:03:12.561Z,852.00
2024-01-16T07:04:13.180Z,848.00
2024-01-16T07:05:12.711Z,844.00
2024-01-16T07:06:12.717Z,842.00
2024-01-16T07:07:13.628Z,845.00
2024-01-16T07:08:12.713Z,834.00
2024-01-16T07:09:12.705Z,835.00
2024-01-16T07:10:12.732Z,837.00
2024-01-16T07:11:12.852Z,828.00
2024-01-16T07:12:12.789Z,818.00
2024-01-16T07:13:12.824Z,827.00
2024-01-16T07:14:12.911Z,824.00
2024-01-16T07:15:12.853Z,820.00
2024-01-16T07:16:12.946Z,816.00
2024-01-16T07:17:12.978Z,807.00
2024-01-16T07:18:13.119Z,811.00
2024-01-16T07:19:13.197Z,805.00
2024-01-16T07:20:13.067Z,805.00
2024-01-16T07:21:13.041Z,810.00
2024-01-16T07:22:13.062Z,803.00
2024-01-16T07:23:13.106Z,807.00
2024-01-16T07:24:13.119Z,812.00
2024-01-16T07:25:13.146Z,803.00
2024-01-16T07:26:13.219Z,799.00
2024-01-16T07:27:13.208Z,792.00
2024-01-16T07:28:13.226Z,775.00
2024-01-16T07:29:13.333Z,610.00
2024-01-16T07:30:13.528Z,559.00
2024-01-16T07:31:13.410Z,526.00
2024-01-16T07:32:14.142Z,515.00
2024-01-16T07:33:13.688Z,552.00
2024-01-16T07:34:13.754Z,618.00
2024-01-16T07:35:13.762Z,602.00
2024-01-16T07:36:13.774Z,599.00
2024-01-16T07:37:13.812Z,599.00
2024-01-16T07:38:16.660Z,600.00
2024-01-16T07:39:13.921Z,600.00
2024-01-16T07:40:14.637Z,602.00
2024-01-16T07:41:14.007Z,601.00
2024-01-16T07:42:13.984Z,600.00
2024-01-16T07:43:14.009Z,605.00
2024-01-16T07:44:14.653Z,602.00
2024-01-16T07:45:14.076Z,601.00
2024-01-16T07:46:14.056Z,600.00
2024-01-16T07:47:14.114Z,601.00
2024-01-16T07:48:14.154Z,601.00
2024-01-16T07:49:14.143Z,601.00
2024-01-16T07:50:14.178Z,601.00
2024-01-16T07:51:14.151Z,602.00
2024-01-16T07:52:14.167Z,602.00
2024-01-16T07:53:14.184Z,606.00
2024-01-16T07:54:14.210Z,607.00
2024-01-16T07:55:14.196Z,619.00
2024-01-16T07:56:14.242Z,624.00
2024-01-16T07:57:14.228Z,628.00
2024-01-16T07:58:14.229Z,635.00
2024-01-16T07:59:14.238Z,641.00
2024-01-16T08:00:15.132Z,649.00
2024-01-16T08:01:14.395Z,652.00
2024-01-16T08:02:14.352Z,662.00
2024-01-16T08:03:14.437Z,673.00
2024-01-16T08:04:14.536Z,688.00
2024-01-16T08:05:14.621Z,716.00
2024-01-16T08:06:14.736Z,730.00
2024-01-16T08:07:14.683Z,746.00
2024-01-16T08:08:15.586Z,767.00
2024-01-16T08:09:14.864Z,782.00
2024-01-16T08:10:17.170Z,805.00
2024-01-16T08:11:14.915Z,825.00
2024-01-16T08:12:14.891Z,843.00
2024-01-16T08:13:14.906Z,852.00
2024-01-16T08:14:14.956Z,868.00
2024-01-16T08:15:14.935Z,880.00
2024-01-16T08:16:14.984Z,902.00
2024-01-16T08:17:14.989Z,892.00
2024-01-16T08:18:15.155Z,910.00
2024-01-16T08:19:15.075Z,914.00
2024-01-16T08:20:15.017Z,915.00
2024-01-16T08:21:15.005Z,930.00
2024-01-16T08:22:15.009Z,935.00
2024-01-16T08:23:15.134Z,930.00
2024-01-16T08:24:15.053Z,935.00
2024-01-16T08:25:15.593Z,936.00
2024-01-16T08:26:15.090Z,932.00
2024-01-16T08:27:15.109Z,942.00
2024-01-16T08:28:15.125Z,942.00
2024-01-16T08:29:15.149Z,954.00
2024-01-16T08:30:15.257Z,963.00
2024-01-16T08:31:15.134Z,960.00
2024-01-16T08:32:15.234Z,972.00
2024-01-16T08:33:16.845Z,972.00
2024-01-16T08:34:15.325Z,972.00
2024-01-16T08:35:15.351Z,986.00
2024-01-16T08:36:15.258Z,987.00
2024-01-16T08:37:16.231Z,988.00
2024-01-16T08:38:15.295Z,990.00
2024-01-16T08:39:15.257Z,992.00
2024-01-16T08:40:15.259Z,989.00
2024-01-16T08:41:15.296Z,995.00
2024-01-16T08:42:16.176Z,997.00
2024-01-16T08:43:15.284Z,1004.00
2024-01-16T08:44:15.323Z,998.00
2024-01-16T08:45:15.308Z,998.00
2024-01-16T08:46:15.319Z,992.00
2024-01-16T08:47:15.385Z,994.00
2024-01-16T08:48:15.502Z,1002.00
2024-01-16T08:49:18.797Z,986.00
2024-01-16T08:50:16.505Z,987.00
2024-01-16T08:51:16.316Z,989.00
2024-01-16T08:52:15.452Z,987.00
2024-01-16T08:53:15.515Z,991.00
2024-01-16T08:54:15.498Z,993.00
2024-01-16T08:55:15.500Z,993.00
2024-01-16T08:56:15.519Z,991.00
2024-01-16T08:57:17.849Z,984.00
2024-01-16T08:58:15.542Z,993.00
2024-01-16T08:59:15.557Z,994.00
2024-01-16T09:00:15.555Z,994.00
2024-01-16T09:01:15.604Z,998.00
2024-01-16T09:02:15.614Z,986.00
2024-01-16T09:03:15.602Z,983.00
2024-01-16T09:04:15.618Z,987.00
2024-01-16T09:05:15.686Z,974.00
2024-01-16T09:06:15.749Z,984.00
2024-01-16T09:07:15.804Z,982.00
2024-01-16T09:08:15.740Z,977.00
2024-01-16T09:09:15.693Z,981.00
2024-01-16T09:10:15.710Z,983.00
2024-01-16T09:11:15.747Z,981.00
2024-01-16T09:12:15.759Z,973.00
2024-01-16T09:13:15.784Z,973.00
2024-01-16T09:14:15.816Z,967.00
2024-01-16T09:15:15.800Z,974.00
2024-01-16T09:16:16.653Z,963.00
2024-01-16T09:17:15.857Z,958.00
2024-01-16T09:18:16.001Z,972.00
2024-01-16T09:19:15.923Z,959.00
2024-01-16T09:20:17.080Z,978.00
2024-01-16T09:21:15.875Z,1001.00
2024-01-16T09:22:15.887Z,1031.00
2024-01-16T09:23:15.896Z,1052.00
2024-01-16T09:24:15.913Z,1062.00
2024-01-16T09:25:15.910Z,1088.00
2024-01-16T09:26:17.719Z,1090.00
2024-01-16T09:27:15.931Z,1098.00
2024-01-16T09:28:15.973Z,1110.00
2024-01-16T09:29:16.019Z,1139.00
2024-01-16T09:30:15.985Z,1188.00
2024-01-16T09:31:16.624Z,1221.00
2024-01-16T09:32:16.012Z,1235.00
2024-01-16T09:33:16.077Z,1264.00
2024-01-16T09:34:16.026Z,1288.00
2024-01-16T09:35:16.057Z,1303.00
2024-01-16T09:36:16.014Z,1325.00
2024-01-16T09:37:16.014Z,1341.00
2024-01-16T09:38:16.053Z,1356.00
2024-01-16T09:39:19.026Z,1357.00
2024-01-16T09:40:16.044Z,1358.00
2024-01-16T09:41:16.095Z,1365.00
2024-01-16T09:42:16.084Z,1381.00
2024-01-16T09:43:16.070Z,1408.00
2024-01-16T09:44:16.104Z,1460.00
2024-01-16T09:45:16.065Z,1475.00
2024-01-16T09:46:16.083Z,1485.00
2024-01-16T09:47:16.088Z,1497.00
2024-01-16T09:48:16.145Z,1509.00
2024-01-16T09:49:16.175Z,1519.00
2024-01-16T09:50:16.153Z,1537.00
2024-01-16T09:51:16.085Z,1543.00
2024-01-16T09:52:16.095Z,1555.00
2024-01-16T09:53:16.109Z,1572.00
2024-01-16T09:54:16.096Z,1588.00
2024-01-16T09:55:16.071Z,1597.00
2024-01-16T09:56:16.149Z,1601.00
2024-01-16T09:57:16.084Z,1621.00
2024-01-16T09:58:16.070Z,1637.00
2024-01-16T09:59:16.159Z,1658.00
2024-01-16T10:00:17.716Z,1668.00
2024-01-16T10:01:16.103Z,1666.00
2024-01-16T10:02:16.100Z,1678.00
2024-01-16T10:03:16.061Z,1700.00
2024-01-16T10:04:16.097Z,1697.00
2024-01-16T10:05:16.161Z,1711.00
2024-01-16T10:06:16.078Z,1732.00
2024-01-16T10:07:16.617Z,1729.00
2024-01-16T10:08:16.075Z,1738.00
2024-01-16T10:09:16.068Z,1764.00
2024-01-16T10:10:21.753Z,1774.00
2024-01-16T10:11:17.636Z,1775.00
2024-01-16T10:12:16.025Z,1779.00
2024-01-16T10:13:16.020Z,1787.00
2024-01-16T10:14:16.040Z,1806.00
2024-01-16T10:15:16.009Z,1828.00
2024-01-16T10:16:16.034Z,1838.00
2024-01-16T10:17:17.330Z,1839.00
2024-01-16T10:18:16.360Z,1845.00
2024-01-16T10:19:16.012Z,1855.00
2024-01-16T10:20:16.066Z,1866.00
2024-01-16T10:21:15.986Z,1902.00
2024-01-16T10:22:16.621Z,1913.00
2024-01-16T10:23:16.000Z,1922.00
2024-01-16T10:24:15.972Z,1927.00
2024-01-16T10:25:16.710Z,1929.00
2024-01-16T10:26:16.006Z,1915.00
2024-01-16T10:27:16.617Z,1753.00
2024-01-16T10:28:15.971Z,1833.00
2024-01-16T10:29:17.154Z,1916.00
2024-01-16T10:30:16.085Z,1920.00
2024-01-16T10:31:16.102Z,1910.00
2024-01-16T10:32:16.078Z,1883.00
2024-01-16T10:33:16.312Z,1862.00
2024-01-16T10:34:16.991Z,1844.00
2024-01-16T10:35:16.704Z,1837.00
2024-01-16T10:36:16.127Z,1821.00
2024-01-16T10:37:16.146Z,1818.00
2024-01-16T10:38:16.199Z,1815.00
2024-01-16T10:39:16.186Z,1815.00
2024-01-16T10:40:16.226Z,1812.00
2024-01-16T10:41:16.310Z,1807.00
2024-01-16T10:42:16.272Z,1820.00
2024-01-16T10:43:16.272Z,1811.00
2024-01-16T10:44:16.332Z,1815.00
2024-01-16T10:45:16.298Z,1826.00
2024-01-16T10:46:17.151Z,1826.00
2024-01-16T10:47:18.248Z,1830.00
2024-01-16T10:48:16.568Z,1839.00
2024-01-16T10:49:16.317Z,1844.00
2024-01-16T10:50:16.398Z,1846.00
2024-01-16T10:51:16.618Z,1854.00
2024-01-16T10:52:16.348Z,1854.00
2024-01-16T10:53:16.402Z,1864.00
2024-01-16T10:54:16.365Z,1883.00
2024-01-16T10:55:16.366Z,1887.00
2024-01-16T10:56:16.422Z,1883.00
2024-01-16T10:57:16.408Z,1894.00
2024-01-16T10:58:16.402Z,1898.00
2024-01-16T10:59:23.255Z,1890.00
2024-01-16T11:00:16.414Z,1891.00
2024-01-16T11:01:16.511Z,1897.00
2024-01-16T11:02:16.404Z,1903.00
2024-01-16T11:03:16.353Z,1920.00
2024-01-16T11:04:16.476Z,1941.00
2024-01-16T11:05:16.460Z,1957.00
2024-01-16T11:06:16.578Z,1962.00
2024-01-16T11:07:16.317Z,1959.00
2024-01-16T11:08:16.344Z,1964.00
2024-01-16T11:09:16.295Z,1977.00
2024-01-16T11:10:16.290Z,1992.00
2024-01-16T11:11:16.373Z,1993.00
2024-01-16T11:12:16.263Z,1986.00
2024-01-16T11:13:16.255Z,1985.00
2024-01-16T11:14:16.303Z,1974.00
2024-01-16T11:15:17.267Z,1975.00
2024-01-16T11:16:16.231Z,1958.00
2024-01-16T11:17:16.279Z,1957.00
2024-01-16T11:18:16.337Z,1957.00
2024-01-16T11:19:31.399Z,1957.00
2024-01-16T11:20:30.128Z,1958.00
2024-01-16T11:21:18.204Z,1958.00
2024-01-16T11:22:16.295Z,1959.00
2024-01-16T11:23:16.197Z,1964.00
2024-01-16T11:24:16.163Z,1962.00
2024-01-16T11:25:16.219Z,1963.00
2024-01-16T11:26:16.308Z,1956.00
2024-01-16T11:27:16.113Z,1947.00
2024-01-16T11:28:16.112Z,1937.00
2024-01-16T11:29:16.131Z,1922.00
2024-01-16T11:30:16.132Z,1928.00
2024-01-16T11:31:16.102Z,1917.00
2024-01-16T11:32:27.460Z,1910.00
2024-01-16T11:33:17.316Z,1911.00
2024-01-16T11:34:17.046Z,1913.00
2024-01-16T11:35:16.296Z,1914.00
2024-01-16T11:36:16.218Z,1909.00
2024-01-16T11:37:16.233Z,1904.00
2024-01-16T11:38:17.274Z,1890.00
2024-01-16T11:39:16.372Z,1887.00
2024-01-16T11:40:16.343Z,1888.00
2024-01-16T11:41:17.118Z,1881.00
2024-01-16T11:42:16.537Z,1869.00
2024-01-16T11:43:16.382Z,1864.00
2024-01-16T11:44:17.578Z,1864.00
2024-01-16T11:45:16.390Z,1864.00
2024-01-16T11:46:16.396Z,1864.00
2024-01-16T11:47:16.467Z,1865.00
2024-01-16T11:48:17.015Z,1865.00
2024-01-16T11:49:16.416Z,1865.00
2024-01-16T11:50:16.451Z,1864.00
2024-01-16T11:51:16.372Z,1857.00
2024-01-16T11:52:16.373Z,1854.00
2024-01-16T11:53:17.218Z,1848.00
2024-01-16T11:54:16.357Z,1835.00
2024-01-16T11:55:16.380Z,1843.00
2024-01-16T11:56:16.434Z,1835.00
2024-01-16T11:57:16.386Z,1829.00
2024-01-16T11:58:17.146Z,1830.00
2024-01-16T11:59:16.454Z,1819.00
2024-01-16T12:00:16.370Z,1816.00
2024-01-16T12:01:16.395Z,1816.00
2024-01-16T12:02:16.436Z,1817.00
2024-01-16T12:03:28.279Z,1817.00
2024-01-16T12:04:17.413Z,1817.00
2024-01-16T12:05:16.526Z,1815.00
2024-01-16T12:06:16.476Z,1768.00
2024-01-16T12:07:16.437Z,1470.00
2024-01-16T12:08:16.475Z,1175.00
2024-01-16T12:09:16.418Z,1011.00
2024-01-16T12:10:16.415Z,744.00
2024-01-16T12:11:16.504Z,618.00
2024-01-16T12:12:16.540Z,592.00
2024-01-16T12:13:16.476Z,565.00
2024-01-16T12:14:16.567Z,553.00